This is the latest recevied weather packets stored in our database for station/object W2SRH. If no packets are shown the sender has not sent any weather packets the latest 1 day(s).
| Time | Temp. | Humidity | Pressure | Rain* | Wind** | Luminosity | Snow |
|---|---|---|---|---|---|---|---|
| 1777982945 | 18.33° C | 53% | 1002.9 hPa | 0 mm | 0.89 m/s, 255° | - | - |
| 1777982344 | 18.33° C | 54% | 1002.8 hPa | 0 mm | 0.89 m/s, 301° | - | - |
| 1777981744 | 18.33° C | 55% | 1002.8 hPa | 0 mm | 0.89 m/s, 279° | - | - |
| 1777981146 | 17.78° C | 56% | 1002.7 hPa | 0 mm | 0.45 m/s, 168° | - | - |
| 1777980544 | 17.78° C | 58% | 1002.5 hPa | 0 mm | 0.45 m/s, 234° | - | - |
| 1777979945 | 17.22° C | 59% | 1002.6 hPa | 0 mm | 0.89 m/s, 262° | - | - |
| 1777979353 | 17.22° C | 59% | 1002.6 hPa | 0 mm | 0.45 m/s, 288° | - | - |
| 1777978746 | 17.22° C | 61% | 1002.5 hPa | 0 mm | 0 m/s | - | - |
| 1777978145 | 16.67° C | 62% | 1002.4 hPa | 0 mm | 0.45 m/s, 263° | - | - |
| 1777977545 | 16.11° C | 64% | 1002.5 hPa | 0 mm | 0 m/s | - | - |
| 1777976943 | 16.11° C | 65% | 1002.4 hPa | 0 mm | 0 m/s | - | - |
| 1777976345 | 15.56° C | 66% | 1002.3 hPa | 0 mm | 0 m/s | - | - |
| 1777975750 | 15° C | 67% | 1002 hPa | 0 mm | 0 m/s | - | - |
| 1777975145 | 15° C | 67% | 1001.9 hPa | 0 mm | 0 m/s | - | - |
| 1777974546 | 15° C | 68% | 1001.8 hPa | 0 mm | 0 m/s | - | - |
| 1777973945 | 15° C | 69% | 1001.8 hPa | 0 mm | 0 m/s | - | - |
| 1777973344 | 14.44° C | 71% | 1001.9 hPa | 0 mm | 0 m/s | - | - |
| 1777972744 | 13.89° C | 71% | 1001.8 hPa | 0 mm | 0 m/s | - | - |
| 1777972145 | 13.89° C | 71% | 1001.7 hPa | 0 mm | 0 m/s | - | - |
| 1777971544 | 14.44° C | 70% | 1001.9 hPa | 0 mm | 0 m/s | - | - |
| 1777970943 | 14.44° C | 69% | 1001.8 hPa | 0 mm | 0 m/s | - | - |
| 1777970344 | 14.44° C | 68% | 1001.8 hPa | 0 mm | 0 m/s | - | - |
| 1777969745 | 15° C | 67% | 1001.8 hPa | 0 mm | 0 m/s | - | - |
| 1777969145 | 15.56° C | 65% | 1001.9 hPa | 0 mm | 0 m/s | - | - |
| 1777968544 | 15.56° C | 64% | 1001.9 hPa | 0 mm | 0 m/s | - | - |
* Rain latest hour (hover to see other rain measurements)
** Current wind speed in m/s (hover to see current wind gust speed)